createdAt,value
2018-12-02T00:00:10.630Z,20.62
2018-12-02T00:02:38.903Z,18.30
2018-12-02T00:05:08.326Z,19.23
2018-12-02T00:07:36.777Z,26.80
2018-12-02T00:10:07.873Z,22.83
2018-12-02T00:12:36.497Z,22.53
2018-12-02T00:15:08.546Z,20.27
2018-12-02T00:17:36.820Z,19.23
2018-12-02T00:20:07.106Z,21.37
2018-12-02T00:22:35.306Z,23.23
2018-12-02T00:25:03.547Z,21.40
2018-12-02T00:27:31.945Z,21.50
2018-12-02T00:30:00.300Z,21.37
2018-12-02T00:32:28.501Z,23.40
2018-12-02T00:34:56.681Z,25.63
2018-12-02T00:37:25.255Z,25.30
2018-12-02T00:39:53.463Z,25.53
2018-12-02T00:42:21.809Z,21.87
2018-12-02T00:44:49.991Z,23.07
2018-12-02T00:47:18.193Z,24.93
2018-12-02T00:49:46.390Z,23.13
2018-12-02T00:52:14.611Z,22.23
2018-12-02T00:54:42.790Z,24.00
2018-12-02T00:57:10.985Z,24.70
2018-12-02T00:59:39.185Z,21.97
2018-12-02T01:02:10.761Z,25.33
2018-12-02T01:04:40.060Z,24.77
2018-12-02T01:07:08.248Z,26.33
2018-12-02T01:09:36.425Z,22.70
2018-12-02T01:12:04.624Z,23.07
2018-12-02T01:14:32.827Z,23.37
2018-12-02T01:17:01.067Z,24.77
2018-12-02T01:19:29.257Z,22.67
2018-12-02T01:21:57.460Z,24.43
2018-12-02T01:24:25.644Z,27.60
2018-12-02T01:26:53.853Z,30.23
2018-12-02T01:29:22.062Z,26.47
2018-12-02T01:31:50.296Z,23.90
2018-12-02T01:34:18.488Z,19.80
2018-12-02T01:36:46.665Z,24.70
2018-12-02T01:39:14.897Z,23.50
2018-12-02T01:41:43.098Z,26.50
2018-12-02T01:44:11.286Z,23.73
2018-12-02T01:46:39.481Z,22.77
2018-12-02T01:49:07.699Z,24.07
2018-12-02T01:51:35.880Z,23.47
2018-12-02T01:54:04.066Z,23.17
2018-12-02T01:56:32.289Z,22.40
2018-12-02T01:59:00.517Z,24.40
2018-12-02T02:01:28.717Z,24.18
2018-12-02T02:03:56.918Z,23.67
2018-12-02T02:06:25.111Z,23.77
2018-12-02T02:08:53.358Z,24.53
2018-12-02T02:11:21.575Z,26.30
2018-12-02T02:13:49.840Z,21.40
2018-12-02T02:16:18.034Z,24.10
2018-12-02T02:18:46.229Z,21.10
2018-12-02T02:21:14.434Z,23.17
2018-12-02T02:23:42.642Z,26.07
2018-12-02T02:26:10.833Z,21.47
2018-12-02T02:28:39.012Z,27.57
2018-12-02T02:31:07.220Z,22.87
2018-12-02T02:33:35.498Z,27.23
2018-12-02T02:36:03.704Z,25.67
2018-12-02T02:38:31.928Z,27.03
2018-12-02T02:41:00.119Z,28.13
2018-12-02T02:43:28.317Z,32.20
2018-12-02T02:45:56.525Z,23.53
2018-12-02T02:48:24.745Z,21.63
2018-12-02T02:50:52.970Z,20.40
2018-12-02T02:53:21.184Z,22.93
2018-12-02T02:55:49.404Z,21.93
2018-12-02T02:58:17.668Z,24.60
2018-12-02T03:00:45.870Z,25.00
2018-12-02T03:03:14.055Z,23.47
2018-12-02T03:05:42.274Z,22.50
2018-12-02T03:08:10.489Z,20.10
2018-12-02T03:10:38.670Z,30.10
2018-12-02T03:13:06.871Z,25.43
2018-12-02T03:15:35.086Z,23.30
2018-12-02T03:18:03.321Z,22.35
2018-12-02T03:20:31.542Z,21.13
2018-12-02T03:22:59.751Z,20.90
2018-12-02T03:25:27.991Z,21.60
2018-12-02T03:27:56.194Z,23.77
2018-12-02T03:30:24.957Z,17.43
2018-12-02T03:32:53.368Z,20.20
2018-12-02T03:35:28.100Z,23.53
2018-12-02T03:37:56.664Z,23.90
2018-12-02T03:40:27.407Z,23.70
2018-12-02T03:42:55.684Z,21.80
2018-12-02T03:45:26.677Z,21.00
2018-12-02T03:47:54.889Z,22.23
2018-12-02T03:50:23.419Z,22.40
2018-12-02T03:52:51.656Z,23.30
2018-12-02T03:55:19.856Z,21.40
2018-12-02T03:57:48.065Z,21.03
2018-12-02T04:00:21.274Z,21.90
2018-12-02T04:02:49.768Z,23.30
2018-12-02T04:05:18.981Z,23.57
2018-12-02T04:07:47.188Z,18.57
2018-12-02T04:10:16.230Z,23.57
2018-12-02T04:12:44.983Z,23.20
2018-12-02T04:15:16.988Z,18.27
2018-12-02T04:17:45.866Z,22.33
2018-12-02T04:20:14.765Z,19.47
2018-12-02T04:22:43.053Z,19.63
2018-12-02T04:25:13.144Z,21.00
2018-12-02T04:27:41.363Z,17.20
2018-12-02T04:30:14.643Z,17.93
2018-12-02T04:32:42.889Z,19.83
2018-12-02T04:35:12.109Z,19.17
2018-12-02T04:37:40.322Z,19.13
2018-12-02T04:40:09.691Z,24.67
2018-12-02T04:42:37.954Z,18.93
2018-12-02T04:45:12.169Z,18.30
2018-12-02T04:47:40.423Z,17.45
2018-12-02T04:50:17.641Z,15.30
2018-12-02T04:52:45.900Z,15.10
2018-12-02T04:55:14.105Z,16.53
2018-12-02T04:57:42.379Z,16.30
2018-12-02T05:00:14.642Z,16.35
2018-12-02T05:02:43.317Z,19.37
2018-12-02T05:05:15.671Z,18.20
2018-12-02T05:07:43.922Z,18.60
2018-12-02T05:10:13.172Z,16.50
2018-12-02T05:12:41.566Z,15.17
2018-12-02T05:15:11.668Z,15.33
2018-12-02T05:17:39.914Z,12.03
2018-12-02T05:20:09.566Z,15.30
2018-12-02T05:22:37.800Z,14.27
2018-12-02T05:25:07.133Z,15.63
2018-12-02T05:27:35.345Z,13.23
2018-12-02T05:30:03.568Z,13.90
2018-12-02T05:32:31.749Z,12.80
2018-12-02T05:34:59.913Z,13.77
2018-12-02T05:37:28.050Z,13.80
2018-12-02T05:39:56.184Z,23.20
2018-12-02T05:42:29.534Z,9.03
2018-12-02T05:44:57.696Z,11.30
2018-12-02T05:47:25.862Z,13.63
2018-12-02T05:49:54.041Z,12.03
2018-12-02T05:52:22.402Z,9.00
2018-12-02T05:54:50.568Z,9.67
2018-12-02T05:57:18.779Z,9.30
2018-12-02T05:59:46.989Z,7.80
2018-12-02T06:02:15.170Z,8.07
2018-12-02T06:04:43.314Z,8.60
2018-12-02T06:07:11.741Z,14.03
2018-12-02T06:09:39.948Z,31.00
2018-12-02T06:12:08.119Z,16.77
2018-12-02T06:14:36.319Z,17.67
2018-12-02T06:17:04.658Z,10.07
2018-12-02T06:19:32.949Z,10.60
2018-12-02T06:22:01.364Z,10.97
2018-12-02T06:24:29.688Z,10.47
2018-12-02T06:26:57.874Z,11.13
2018-12-02T06:29:26.118Z,10.23
2018-12-02T06:31:54.621Z,9.43
2018-12-02T06:34:23.255Z,16.10
2018-12-02T06:36:51.535Z,12.33
2018-12-02T06:39:20.094Z,11.30
2018-12-02T06:41:48.719Z,11.10
2018-12-02T06:44:17.291Z,11.20
2018-12-02T06:46:45.813Z,10.17
2018-12-02T06:49:14.334Z,13.80
2018-12-02T06:51:42.785Z,11.87
2018-12-02T06:54:11.245Z,10.63
2018-12-02T06:56:39.706Z,11.50
2018-12-02T06:59:13.651Z,11.17
2018-12-02T07:01:47.845Z,11.50
2018-12-02T07:04:28.118Z,10.33
2018-12-02T07:06:56.899Z,12.07
2018-12-02T07:09:25.332Z,13.10
2018-12-02T07:11:53.631Z,14.07
2018-12-02T07:14:22.077Z,11.43
2018-12-02T07:16:50.472Z,11.85
2018-12-02T07:19:22.057Z,13.23
2018-12-02T07:21:52.793Z,9.20
2018-12-02T07:24:21.988Z,9.40
2018-12-02T07:26:50.305Z,10.50
2018-12-02T07:29:18.649Z,11.17
2018-12-02T07:31:47.009Z,8.90
2018-12-02T07:34:15.493Z,9.93
2018-12-02T07:36:43.869Z,14.00
2018-12-02T07:41:24.664Z,8.63
2018-12-02T07:43:53.347Z,9.70
2018-12-02T07:46:21.756Z,10.65
2018-12-02T07:48:51.087Z,9.33
2018-12-02T07:51:19.366Z,7.37
2018-12-02T07:53:47.889Z,8.90
2018-12-02T07:56:16.140Z,10.73
2018-12-02T07:58:44.645Z,8.70
2018-12-02T08:01:13.062Z,11.50
2018-12-02T08:03:41.622Z,11.43
2018-12-02T08:06:11.059Z,13.20
2018-12-02T08:08:39.521Z,10.40
2018-12-02T08:11:07.928Z,12.77
2018-12-02T08:13:37.266Z,9.57
2018-12-02T08:16:06.098Z,7.60
2018-12-02T08:18:34.570Z,13.63
2018-12-02T08:21:02.997Z,10.53
2018-12-02T08:23:31.609Z,7.73
2018-12-02T08:26:00.711Z,8.90
2018-12-02T08:28:29.297Z,6.27
2018-12-02T08:30:57.906Z,9.30
2018-12-02T08:33:26.438Z,7.47
2018-12-02T08:35:54.941Z,8.83
2018-12-02T08:38:24.702Z,8.43
2018-12-02T08:40:53.361Z,6.33
2018-12-02T08:43:21.846Z,7.00
2018-12-02T08:45:50.372Z,8.50
2018-12-02T08:48:18.830Z,7.43
2018-12-02T08:50:47.394Z,6.70
2018-12-02T08:53:15.858Z,7.00
2018-12-02T08:55:44.378Z,9.03
2018-12-02T08:58:12.911Z,5.93
2018-12-02T09:00:41.485Z,6.17
2018-12-02T09:03:10.619Z,7.77
2018-12-02T09:05:39.756Z,7.27
2018-12-02T09:08:09.580Z,10.80
2018-12-02T09:10:38.097Z,8.50
2018-12-02T09:13:08.106Z,7.60
2018-12-02T09:15:36.541Z,5.27
2018-12-02T09:18:06.385Z,9.73
2018-12-02T09:20:35.650Z,7.90
2018-12-02T09:23:04.692Z,8.27
2018-12-02T09:25:33.216Z,5.97
2018-12-02T09:28:02.613Z,7.40
2018-12-02T09:30:37.720Z,6.40
2018-12-02T09:33:06.466Z,5.00
2018-12-02T09:35:34.993Z,5.37
2018-12-02T09:38:03.874Z,5.30
2018-12-02T09:40:32.767Z,6.90
2018-12-02T09:43:01.962Z,5.87
2018-12-02T09:45:30.699Z,8.47
2018-12-02T09:48:00.073Z,6.17
2018-12-02T09:50:29.423Z,6.13
2018-12-02T09:52:57.772Z,7.10
2018-12-02T09:55:30.499Z,5.30
2018-12-02T09:57:58.947Z,4.43
2018-12-02T10:00:27.442Z,3.97
2018-12-02T10:02:55.922Z,4.70
2018-12-02T10:05:24.543Z,4.77
2018-12-02T10:07:52.944Z,4.40
2018-12-02T10:10:22.910Z,4.73
2018-12-02T10:12:54.314Z,5.17
2018-12-02T10:15:22.735Z,6.30
2018-12-02T10:17:51.214Z,4.90
2018-12-02T10:20:20.329Z,4.90
2018-12-02T10:22:48.803Z,5.07
2018-12-02T10:25:17.958Z,4.30
2018-12-02T10:27:46.418Z,6.83
2018-12-02T10:30:16.403Z,5.67
2018-12-02T10:32:44.981Z,4.90
2018-12-02T10:35:16.414Z,4.10
2018-12-02T10:37:44.625Z,4.93
2018-12-02T10:40:16.814Z,4.30
2018-12-02T10:42:45.288Z,5.17
2018-12-02T10:45:18.514Z,4.00
2018-12-02T10:47:46.949Z,6.50
2018-12-02T10:50:17.332Z,5.87
2018-12-02T10:52:45.792Z,4.27
2018-12-02T10:55:19.971Z,5.03
2018-12-02T10:57:48.381Z,4.70
2018-12-02T11:01:19.741Z,4.37
2018-12-02T11:03:48.707Z,5.50
2018-12-02T11:06:17.150Z,9.97
2018-12-02T11:08:45.571Z,3.80
2018-12-02T11:11:14.081Z,4.20
2018-12-02T11:13:42.470Z,4.50
2018-12-02T11:16:10.904Z,3.30
2018-12-02T11:18:39.216Z,5.53
2018-12-02T11:21:07.641Z,5.33
2018-12-02T11:23:35.999Z,4.33
2018-12-02T11:26:04.475Z,4.00
2018-12-02T11:28:32.848Z,3.60
2018-12-02T11:31:01.202Z,4.60
2018-12-02T11:33:29.535Z,4.27
2018-12-02T11:35:57.791Z,3.67
2018-12-02T11:38:26.108Z,4.20
2018-12-02T11:40:54.409Z,3.53
2018-12-02T11:43:22.693Z,3.67
2018-12-02T11:45:51.045Z,4.23
2018-12-02T11:48:19.315Z,3.93
2018-12-02T11:50:47.553Z,3.37
2018-12-02T11:53:15.844Z,3.30
2018-12-02T11:55:44.142Z,3.27
2018-12-02T11:58:12.473Z,3.40
2018-12-02T12:00:41.320Z,3.00
2018-12-02T12:03:09.698Z,3.40
2018-12-02T12:05:38.723Z,8.00
2018-12-02T12:08:08.688Z,3.80
2018-12-02T12:10:37.137Z,3.17
2018-12-02T12:13:05.533Z,7.20
2018-12-02T12:15:34.053Z,43.50
2018-12-02T12:18:02.477Z,10.97
2018-12-02T12:20:35.217Z,2.97
2018-12-02T12:23:05.604Z,5.00
2018-12-02T12:25:34.054Z,4.67
2018-12-02T12:28:02.526Z,3.40
2018-12-02T12:30:32.793Z,2.50
2018-12-02T12:33:01.185Z,3.10
2018-12-02T12:35:29.703Z,3.47
2018-12-02T12:37:58.170Z,4.83
2018-12-02T12:40:30.561Z,3.03
2018-12-02T12:43:20.614Z,3.80
2018-12-02T12:45:49.147Z,4.10
2018-12-02T12:48:17.557Z,3.90
2018-12-02T12:50:45.976Z,3.93
2018-12-02T12:53:14.392Z,3.80
2018-12-02T12:55:42.799Z,3.17
2018-12-02T12:58:12.068Z,5.10
2018-12-02T13:00:40.461Z,3.60
2018-12-02T13:03:08.881Z,5.27
2018-12-02T13:05:37.309Z,5.17
2018-12-02T13:08:06.964Z,4.07
2018-12-02T13:10:35.754Z,4.23
2018-12-02T13:13:04.617Z,4.00
2018-12-02T13:15:33.019Z,2.57
2018-12-02T13:18:02.450Z,7.23
2018-12-02T13:20:39.837Z,5.03
2018-12-02T13:23:08.268Z,4.30
2018-12-02T13:25:43.278Z,3.33
2018-12-02T13:57:01.332Z,3.87
2018-12-02T13:59:29.517Z,3.20
2018-12-02T14:01:57.939Z,2.60
2018-12-02T14:04:26.364Z,6.63
2018-12-02T14:06:54.633Z,3.80
2018-12-02T14:09:22.821Z,6.90
2018-12-02T14:11:51.084Z,5.73
2018-12-02T14:14:19.311Z,7.53
2018-12-02T14:16:58.778Z,6.67
2018-12-02T14:19:26.933Z,4.70
2018-12-02T14:21:55.327Z,4.33
2018-12-02T14:24:23.728Z,4.70
2018-12-02T14:26:52.040Z,7.33
2018-12-02T14:29:26.734Z,6.17
2018-12-02T14:31:56.889Z,3.53
2018-12-02T14:34:25.200Z,4.93
2018-12-02T14:36:55.755Z,5.40
2018-12-02T14:39:24.157Z,10.53
2018-12-02T14:41:52.414Z,4.00
2018-12-02T14:44:20.824Z,5.20
2018-12-02T14:46:49.260Z,4.20
2018-12-02T14:49:17.604Z,4.10
2018-12-02T14:51:46.074Z,5.10
2018-12-02T14:54:14.437Z,3.70
2018-12-02T14:56:43.338Z,3.20
2018-12-02T14:59:11.145Z,8.90
2018-12-02T15:01:39.401Z,3.83
2018-12-02T15:04:07.713Z,3.27
2018-12-02T15:06:35.899Z,8.93
2018-12-02T15:09:07.061Z,11.53
2018-12-02T15:11:35.286Z,7.67
2018-12-02T15:14:03.801Z,5.23
2018-12-02T15:16:32.111Z,4.97
2018-12-02T15:19:00.513Z,4.80
2018-12-02T15:21:28.738Z,5.10
2018-12-02T15:23:57.042Z,3.63
2018-12-02T15:26:25.346Z,3.40
2018-12-02T15:28:53.514Z,18.57
2018-12-02T15:31:21.682Z,5.20
2018-12-02T15:33:50.006Z,3.30
2018-12-02T15:36:18.327Z,2.83
2018-12-02T15:38:46.579Z,3.23
2018-12-02T15:41:14.966Z,9.27
2018-12-02T15:43:43.439Z,4.47
2018-12-02T15:46:11.743Z,6.53
2018-12-02T15:48:40.187Z,3.77
2018-12-02T15:51:08.612Z,2.97
2018-12-02T15:53:36.969Z,6.57
2018-12-02T15:56:05.518Z,3.23
2018-12-02T15:58:33.936Z,3.80
2018-12-02T16:01:02.227Z,4.07
2018-12-02T16:03:30.560Z,7.00
2018-12-02T16:05:58.964Z,7.97
2018-12-02T16:08:27.277Z,3.97
2018-12-02T16:10:55.531Z,3.90
2018-12-02T16:13:23.749Z,3.43
2018-12-02T16:15:51.990Z,3.50
2018-12-02T16:18:20.543Z,3.80
2018-12-02T16:20:51.034Z,4.73
2018-12-02T16:23:21.565Z,4.13
2018-12-02T16:25:54.480Z,8.43
2018-12-02T16:28:22.731Z,4.40
2018-12-02T16:30:52.351Z,7.63
2018-12-02T16:33:20.836Z,4.80
2018-12-02T16:35:49.152Z,4.63
2018-12-02T16:38:17.562Z,5.23
2018-12-02T16:40:45.830Z,4.10
2018-12-02T16:43:14.060Z,4.73
2018-12-02T16:45:42.357Z,4.00
2018-12-02T16:48:11.465Z,5.67
2018-12-02T16:50:43.045Z,2.83
2018-12-02T16:53:16.741Z,3.47
2018-12-02T16:55:55.305Z,3.00
2018-12-02T16:58:28.079Z,3.17
2018-12-02T17:01:28.425Z,3.63
2018-12-02T17:03:58.661Z,3.00
2018-12-02T17:06:26.919Z,3.37
2018-12-02T17:08:56.269Z,4.27
2018-12-02T17:11:24.524Z,3.80
2018-12-02T17:13:52.772Z,3.67
2018-12-02T17:16:20.961Z,5.30
2018-12-02T17:18:49.551Z,5.60
2018-12-02T17:21:27.982Z,5.10
2018-12-02T17:23:56.346Z,4.95
2018-12-02T17:26:24.670Z,5.07
2018-12-02T17:28:52.863Z,5.10
2018-12-02T17:31:22.950Z,6.50
2018-12-02T17:33:51.155Z,5.47
2018-12-02T17:36:19.371Z,7.20
2018-12-02T17:38:49.006Z,5.20
2018-12-02T17:41:17.240Z,4.47
2018-12-02T17:43:45.470Z,5.60
2018-12-02T17:46:13.667Z,5.40
2018-12-02T17:48:41.873Z,5.97
2018-12-02T17:51:10.042Z,6.00
2018-12-02T17:53:39.789Z,6.77
2018-12-02T17:56:07.955Z,7.53
2018-12-02T17:58:36.948Z,7.60
2018-12-02T18:01:05.736Z,11.13
2018-12-02T18:03:34.380Z,12.30
2018-12-02T18:06:02.528Z,7.43
2018-12-02T18:08:30.702Z,6.70
2018-12-02T18:10:58.932Z,14.67
2018-12-02T18:13:27.084Z,5.70
2018-12-02T18:15:55.213Z,11.57
2018-12-02T18:18:23.713Z,6.90
2018-12-02T18:20:51.904Z,6.00
2018-12-02T18:23:20.048Z,7.20
2018-12-02T18:25:48.295Z,7.80
2018-12-02T18:28:16.460Z,14.10
2018-12-02T18:30:44.592Z,10.80
2018-12-02T18:33:14.025Z,5.70
2018-12-02T18:35:52.946Z,10.00
2018-12-02T18:38:22.449Z,6.77
2018-12-02T18:41:00.234Z,5.90
2018-12-02T18:43:28.386Z,5.90
2018-12-02T18:45:56.565Z,8.60
2018-12-02T18:48:25.029Z,8.57
2018-12-02T18:50:53.244Z,11.13
2018-12-02T18:53:21.468Z,7.53
2018-12-02T18:55:49.704Z,6.20
2018-12-02T18:58:17.932Z,6.80
2018-12-02T19:00:47.162Z,8.07
2018-12-02T19:03:16.707Z,21.40
2018-12-02T19:05:45.029Z,9.43
2018-12-02T19:08:13.336Z,6.30
2018-12-02T19:10:41.798Z,8.30
2018-12-02T19:13:09.996Z,6.83
2018-12-02T19:15:38.289Z,6.43
2018-12-02T19:18:06.556Z,8.50
2018-12-02T19:20:34.857Z,9.80
2018-12-02T19:23:05.352Z,10.40
2018-12-02T19:25:33.691Z,8.37
2018-12-02T19:28:01.907Z,10.00
2018-12-02T19:30:33.068Z,8.17
2018-12-02T19:32:58.359Z,6.90
2018-12-02T19:35:30.761Z,9.47
2018-12-02T19:38:05.827Z,8.30
2018-12-02T19:40:34.072Z,8.60
2018-12-02T19:43:02.283Z,7.90
2018-12-02T19:45:30.481Z,8.50
2018-12-02T19:47:58.673Z,6.60
2018-12-02T19:50:26.867Z,7.00
2018-12-02T19:52:55.081Z,6.23
2018-12-02T19:55:23.545Z,7.40
2018-12-02T19:57:51.886Z,9.70
2018-12-02T20:00:31.423Z,10.00
2018-12-02T20:03:00.211Z,7.47
2018-12-02T20:05:28.757Z,5.80
2018-12-02T20:07:59.226Z,9.93
2018-12-02T20:10:29.610Z,9.80
2018-12-02T20:13:01.001Z,7.17
2018-12-02T20:15:29.576Z,9.40
2018-12-02T20:17:58.291Z,12.00
2018-12-02T20:20:32.195Z,11.57
2018-12-02T20:23:00.753Z,16.47
2018-12-02T20:25:29.260Z,20.03
2018-12-02T20:27:59.577Z,11.60
2018-12-02T20:30:27.962Z,10.10
2018-12-02T20:32:56.215Z,7.13
2018-12-02T20:35:24.673Z,18.87
2018-12-02T20:37:52.974Z,7.20
2018-12-02T20:40:22.368Z,5.93
2018-12-02T20:42:53.031Z,5.13
2018-12-02T20:45:21.661Z,4.77
2018-12-02T20:47:49.961Z,6.53
2018-12-02T20:50:18.734Z,4.33
2018-12-02T20:52:47.609Z,5.63
2018-12-02T20:55:25.270Z,5.50
2018-12-02T20:57:55.268Z,6.70
2018-12-02T21:00:23.655Z,5.47
2018-12-02T21:03:09.354Z,6.00
2018-12-02T21:05:40.792Z,5.17
2018-12-02T21:08:09.190Z,5.90
2018-12-02T21:10:37.791Z,7.77
2018-12-02T21:13:06.285Z,6.50
2018-12-02T21:15:36.386Z,9.10
2018-12-02T21:18:07.304Z,10.33
2018-12-02T21:20:35.609Z,8.30
2018-12-02T21:23:04.540Z,7.30
2018-12-02T21:25:32.726Z,7.70
2018-12-02T21:28:01.230Z,4.80
2018-12-02T21:30:29.811Z,4.63
2018-12-02T21:32:57.966Z,5.13
2018-12-02T21:35:26.339Z,9.30
2018-12-02T21:37:55.711Z,6.10
2018-12-02T21:40:23.872Z,6.60
2018-12-02T21:42:52.035Z,12.40
2018-12-02T21:45:20.232Z,6.73
2018-12-02T21:47:52.620Z,4.43
2018-12-02T21:50:24.992Z,6.60
2018-12-02T21:52:53.245Z,4.80
2018-12-02T21:55:21.540Z,6.00
2018-12-02T21:57:49.936Z,4.37
2018-12-02T22:00:23.589Z,3.93
2018-12-02T22:02:52.740Z,3.87
2018-12-02T22:05:21.110Z,3.60
2018-12-02T22:07:50.108Z,3.57
2018-12-02T22:10:23.960Z,2.90
2018-12-02T22:12:52.421Z,3.63
2018-12-02T22:15:20.729Z,4.50
2018-12-02T22:17:49.201Z,3.60
2018-12-02T22:20:17.689Z,4.80
2018-12-02T22:22:46.115Z,4.77
2018-12-02T22:25:18.285Z,3.70
2018-12-02T22:27:51.610Z,3.90
2018-12-02T22:30:21.133Z,5.00
2018-12-02T22:32:49.472Z,3.40
2018-12-02T22:35:17.761Z,3.73
2018-12-02T22:37:46.561Z,3.80
2018-12-02T22:40:19.709Z,7.37
2018-12-02T22:42:48.071Z,6.90
2018-12-02T22:45:19.476Z,6.00
2018-12-02T22:47:48.386Z,6.13
2018-12-02T22:50:17.688Z,5.80
2018-12-02T22:52:47.064Z,4.80
2018-12-02T22:55:15.365Z,6.90
2018-12-02T22:57:43.843Z,5.83
2018-12-02T23:00:21.665Z,7.57
2018-12-02T23:02:58.540Z,14.63
2018-12-02T23:05:27.069Z,8.13
2018-12-02T23:07:55.510Z,7.67
2018-12-02T23:10:23.956Z,4.57
2018-12-02T23:12:52.439Z,3.93
2018-12-02T23:15:20.816Z,3.53
2018-12-02T23:17:49.341Z,4.07
2018-12-02T23:20:17.648Z,4.20
2018-12-02T23:22:46.078Z,5.80
2018-12-02T23:25:15.193Z,3.67
2018-12-02T23:27:43.711Z,3.90
2018-12-02T23:30:14.175Z,4.10
2018-12-02T23:32:42.594Z,3.40
2018-12-02T23:35:11.065Z,3.20
2018-12-02T23:37:39.487Z,4.03
2018-12-02T23:40:16.834Z,3.40
2018-12-02T23:42:45.317Z,4.20
2018-12-02T23:45:14.332Z,2.80
2018-12-02T23:47:42.743Z,3.00
2018-12-02T23:50:12.313Z,2.90
2018-12-02T23:52:40.670Z,2.50
2018-12-02T23:55:11.118Z,2.87
2018-12-02T23:57:39.568Z,2.80
